createdAt,value
2018-07-03T00:02:02.438Z,19.30
2018-07-03T00:04:32.042Z,19.30
2018-07-03T00:07:01.574Z,19.20
2018-07-03T00:09:31.853Z,19.20
2018-07-03T00:12:03.068Z,19.20
2018-07-03T00:14:32.562Z,19.10
2018-07-03T00:17:09.236Z,19.10
2018-07-03T00:19:38.719Z,19.00
2018-07-03T00:22:08.260Z,19.00
2018-07-03T00:24:38.058Z,18.90
2018-07-03T00:27:07.808Z,19.00
2018-07-03T00:29:37.323Z,18.90
2018-07-03T00:32:06.926Z,18.90
2018-07-03T00:34:36.424Z,18.90
2018-07-03T00:37:05.991Z,18.90
2018-07-03T00:39:35.446Z,18.80
2018-07-03T00:42:06.167Z,18.80
2018-07-03T00:44:35.622Z,18.80
2018-07-03T00:47:05.539Z,18.80
2018-07-03T00:49:35.042Z,18.80
2018-07-03T00:52:05.754Z,18.80
2018-07-03T00:54:35.311Z,18.70
2018-07-03T00:57:05.915Z,18.70
2018-07-03T00:59:37.213Z,18.60
2018-07-03T01:02:07.345Z,18.60
2018-07-03T01:04:37.106Z,18.60
2018-07-03T01:07:06.805Z,18.50
2018-07-03T01:09:36.368Z,18.60
2018-07-03T01:12:06.145Z,18.60
2018-07-03T01:17:36.154Z,18.60
2018-07-03T01:20:07.395Z,18.50
2018-07-03T01:22:37.055Z,18.50
2018-07-03T01:25:06.576Z,18.40
2018-07-03T01:30:36.090Z,18.40
2018-07-03T01:33:05.736Z,18.50
2018-07-03T01:35:35.505Z,18.40
2018-07-03T01:38:05.085Z,18.40
2018-07-03T01:40:34.659Z,18.40
2018-07-03T01:43:04.360Z,18.50
2018-07-03T01:45:34.048Z,18.40
2018-07-03T01:48:04.031Z,18.40
2018-07-03T01:50:33.530Z,18.30
2018-07-03T01:53:05.132Z,18.30
2018-07-03T01:55:34.738Z,18.30
2018-07-03T01:58:05.171Z,18.30
2018-07-03T02:00:34.710Z,18.20
2018-07-03T02:03:05.725Z,18.20
2018-07-03T02:05:35.405Z,18.30
2018-07-03T02:08:05.790Z,18.30
2018-07-03T02:10:35.282Z,18.30
2018-07-03T02:13:05.986Z,18.20
2018-07-03T02:15:35.568Z,18.30
2018-07-03T02:18:06.621Z,18.20
2018-07-03T02:20:36.233Z,18.20
2018-07-03T02:23:05.896Z,18.20
2018-07-03T02:25:35.387Z,18.10
2018-07-03T02:28:05.794Z,18.10
2018-07-03T02:30:35.522Z,18.10
2018-07-03T02:33:04.972Z,18.10
2018-07-03T02:35:34.423Z,18.10
2018-07-03T02:38:05.003Z,18.10
2018-07-03T02:40:34.621Z,18.00
2018-07-03T02:43:04.887Z,18.00
2018-07-03T02:45:34.360Z,18.00
2018-07-03T02:48:04.156Z,18.00
2018-07-03T02:50:33.831Z,18.00
2018-07-03T02:53:04.180Z,18.00
2018-07-03T02:55:33.712Z,17.90
2018-07-03T02:58:03.249Z,17.90
2018-07-03T03:00:32.769Z,18.00
2018-07-03T03:03:02.266Z,18.00
2018-07-03T03:05:32.267Z,18.00
2018-07-03T03:08:03.590Z,17.90
2018-07-03T03:10:34.025Z,17.90
2018-07-03T03:13:05.950Z,17.90
2018-07-03T03:15:35.812Z,17.90
2018-07-03T03:18:05.655Z,17.90
2018-07-03T03:20:35.199Z,18.00
2018-07-03T03:23:05.817Z,17.90
2018-07-03T03:25:36.452Z,17.90
2018-07-03T03:28:06.075Z,17.90
2018-07-03T03:30:42.008Z,17.90
2018-07-03T03:33:11.626Z,17.90
2018-07-03T03:35:41.234Z,17.90
2018-07-03T03:38:10.815Z,18.00
2018-07-03T03:40:40.342Z,17.90
2018-07-03T03:43:09.909Z,18.00
2018-07-03T03:45:39.861Z,18.00
2018-07-03T03:48:10.110Z,18.00
2018-07-03T03:50:39.644Z,18.00
2018-07-03T03:53:09.202Z,18.00
2018-07-03T03:55:39.444Z,18.00
2018-07-03T03:58:08.928Z,18.10
2018-07-03T04:00:38.555Z,18.10
2018-07-03T04:03:08.626Z,18.20
2018-07-03T04:05:38.123Z,18.30
2018-07-03T04:08:08.271Z,18.30
2018-07-03T04:10:37.838Z,18.30
2018-07-03T04:13:08.177Z,18.40
2018-07-03T04:15:38.006Z,18.50
2018-07-03T04:18:07.576Z,18.60
2018-07-03T04:20:37.077Z,18.80
2018-07-03T04:23:06.657Z,19.00
2018-07-03T04:25:36.150Z,19.10
2018-07-03T04:28:07.239Z,19.10
2018-07-03T04:30:36.815Z,19.00
2018-07-03T04:33:07.317Z,19.10
2018-07-03T04:35:36.850Z,19.20
2018-07-03T04:38:08.736Z,19.20
2018-07-03T04:40:38.426Z,19.20
2018-07-03T04:43:08.880Z,19.40
2018-07-03T04:55:03.141Z,19.80
2018-07-03T04:57:33.438Z,19.70
2018-07-03T05:00:05.316Z,19.80
2018-07-03T05:02:48.976Z,19.90
2018-07-03T05:05:18.958Z,19.90
2018-07-03T05:08:05.462Z,20.00
2018-07-03T05:13:47.211Z,20.00
2018-07-03T05:16:17.314Z,20.30
2018-07-03T05:21:52.367Z,20.50
2018-07-03T05:27:29.814Z,20.50
2018-07-03T05:30:21.604Z,20.50
2018-07-03T05:35:50.909Z,20.50
2018-07-03T05:38:40.852Z,20.50
2018-07-03T05:41:21.837Z,20.50
2018-07-03T05:49:47.389Z,20.50
2018-07-03T05:55:19.892Z,20.50
2018-07-03T06:04:00.128Z,20.80
2018-07-03T06:06:30.748Z,21.00
2018-07-03T06:09:07.692Z,21.00
2018-07-03T06:11:38.219Z,21.20
2018-07-03T06:14:16.280Z,21.40
2018-07-03T06:16:57.190Z,21.60
2018-07-03T06:19:33.234Z,21.80
2018-07-03T12:52:42.508Z,29.00
2018-07-03T12:55:12.402Z,29.00
2018-07-03T12:57:42.217Z,28.90
2018-07-03T13:00:11.997Z,29.00
2018-07-03T13:02:41.852Z,28.90
2018-07-03T13:05:11.689Z,28.90
2018-07-03T13:07:41.310Z,28.90
2018-07-03T13:10:11.173Z,28.80
2018-07-03T13:12:41.002Z,28.70
2018-07-03T13:15:11.006Z,28.60
2018-07-03T13:17:40.753Z,28.50
2018-07-03T13:20:10.412Z,28.60
2018-07-03T13:22:40.054Z,28.70
2018-07-03T13:25:11.492Z,28.70
2018-07-03T13:27:42.672Z,28.60
2018-07-03T13:30:12.464Z,28.50
2018-07-03T13:32:42.089Z,28.50
2018-07-03T13:35:11.976Z,28.50
2018-07-03T13:37:41.786Z,28.40
2018-07-03T13:40:11.946Z,28.30
2018-07-03T13:42:41.714Z,28.30
2018-07-03T13:45:11.712Z,28.20
2018-07-03T13:47:44.246Z,28.10
2018-07-03T13:50:13.943Z,28.00
2018-07-03T13:52:43.757Z,27.90
2018-07-03T13:55:13.444Z,27.80
2018-07-03T13:57:43.039Z,27.80
2018-07-03T14:00:12.658Z,27.70
2018-07-03T14:02:42.398Z,27.70
2018-07-03T14:05:12.537Z,27.70
2018-07-03T14:07:42.332Z,27.70
2018-07-03T14:10:12.186Z,27.70
2018-07-03T14:12:41.899Z,27.70
2018-07-03T14:15:11.569Z,27.80
2018-07-03T14:17:41.836Z,27.80
2018-07-03T14:20:12.596Z,27.70
2018-07-03T14:22:42.842Z,27.70
2018-07-03T14:25:12.567Z,27.70
2018-07-03T14:27:42.542Z,27.80
2018-07-03T14:30:12.190Z,27.80
2018-07-03T14:32:41.981Z,27.90
2018-07-03T14:35:12.875Z,27.90
2018-07-03T14:37:42.625Z,27.90
2018-07-03T14:40:12.453Z,27.90
2018-07-03T14:42:42.077Z,27.90
2018-07-03T14:45:12.671Z,27.90
2018-07-03T14:47:44.146Z,27.80
2018-07-03T14:50:13.960Z,27.80
2018-07-03T14:52:44.243Z,27.80
2018-07-03T14:55:13.967Z,27.80
2018-07-03T14:57:43.949Z,27.80
2018-07-03T15:00:13.570Z,27.80
2018-07-03T15:02:43.674Z,27.60
2018-07-03T15:05:13.403Z,27.60
2018-07-03T15:07:43.099Z,27.60
2018-07-03T15:10:12.771Z,27.50
2018-07-03T15:12:42.519Z,27.40
2018-07-03T15:15:12.554Z,27.20
2018-07-03T15:17:42.370Z,27.10
2018-07-03T15:20:12.238Z,27.00
2018-07-03T15:22:42.108Z,27.00
2018-07-03T15:25:11.968Z,27.00
2018-07-03T15:27:41.651Z,27.00
2018-07-03T15:30:15.451Z,27.00
2018-07-03T15:32:45.072Z,27.00
2018-07-03T15:35:14.898Z,27.00
2018-07-03T15:37:45.106Z,27.00
2018-07-03T15:40:14.883Z,27.00
2018-07-03T15:42:44.482Z,27.00
2018-07-03T15:45:15.107Z,27.00
2018-07-03T15:47:44.957Z,27.00
2018-07-03T15:50:14.967Z,27.00
2018-07-03T15:52:44.832Z,26.90
2018-07-03T15:55:14.673Z,27.00
2018-07-03T15:57:44.558Z,27.00
2018-07-03T16:00:15.751Z,27.00
2018-07-03T16:03:56.600Z,27.10
2018-07-03T16:06:37.209Z,27.00
2018-07-03T16:09:16.694Z,27.00
2018-07-03T16:11:46.395Z,26.90
2018-07-03T16:14:16.350Z,26.90
2018-07-03T16:16:46.006Z,26.80
2018-07-03T16:19:20.647Z,26.80
2018-07-03T16:21:50.679Z,26.70
2018-07-03T16:24:20.590Z,26.70
2018-07-03T16:26:50.488Z,26.60
2018-07-03T16:29:20.347Z,26.60
2018-07-03T16:31:51.773Z,26.50
2018-07-03T16:34:21.628Z,26.50
2018-07-03T16:36:51.843Z,26.50
2018-07-03T16:39:21.743Z,26.40
2018-07-03T16:41:52.181Z,26.40
2018-07-03T16:44:22.990Z,26.40
2018-07-03T16:46:52.664Z,26.30
2018-07-03T16:49:22.603Z,26.30
2018-07-03T16:51:52.547Z,26.30
2018-07-03T16:54:22.552Z,26.30
2018-07-03T16:56:52.229Z,26.30
2018-07-03T16:59:22.089Z,26.20
2018-07-03T17:01:51.781Z,26.10
2018-07-03T17:04:24.993Z,26.10
2018-07-03T17:06:54.837Z,26.10
2018-07-03T17:09:24.807Z,26.10
2018-07-03T17:11:54.542Z,26.10
2018-07-03T17:14:24.409Z,26.10
2018-07-03T17:16:54.321Z,26.10
2018-07-03T17:19:29.329Z,26.10
2018-07-03T17:21:59.074Z,26.10
2018-07-03T17:24:28.959Z,26.10
2018-07-03T17:26:58.668Z,26.10
2018-07-03T17:29:28.352Z,26.00
2018-07-03T17:31:59.064Z,26.00
2018-07-03T17:34:28.762Z,26.10
2018-07-03T17:36:58.666Z,26.00
2018-07-03T17:39:39.282Z,26.00
2018-07-03T17:42:19.675Z,26.00
2018-07-03T17:45:57.082Z,25.90
2018-07-03T17:48:26.845Z,25.90
2018-07-03T17:50:56.733Z,25.90
2018-07-03T17:53:26.593Z,25.90
2018-07-03T17:55:56.805Z,25.90
2018-07-03T17:58:26.703Z,25.90
2018-07-03T18:00:56.422Z,25.80
2018-07-03T18:03:26.288Z,25.80
2018-07-03T18:05:56.244Z,25.90
2018-07-03T18:08:25.779Z,25.80
2018-07-03T18:10:55.661Z,25.80
2018-07-03T18:13:26.047Z,25.70
2018-07-03T18:15:56.000Z,25.70
2018-07-03T18:18:25.591Z,25.70
2018-07-03T18:20:55.602Z,25.60
2018-07-03T18:23:25.836Z,25.60
2018-07-03T18:25:55.490Z,25.60
2018-07-03T18:28:25.234Z,25.60
2018-07-03T18:30:55.032Z,25.50
2018-07-03T18:33:24.928Z,25.50
2018-07-03T18:35:54.637Z,25.50
2018-07-03T18:38:24.285Z,25.50
2018-07-03T18:40:53.974Z,25.50
2018-07-03T18:43:24.021Z,25.50
2018-07-03T18:45:53.629Z,25.40
2018-07-03T18:48:23.374Z,25.40
2018-07-03T18:50:52.941Z,25.40
2018-07-03T18:53:22.584Z,25.30
2018-07-03T18:55:52.448Z,25.30
2018-07-03T18:58:22.401Z,25.30
2018-07-03T19:00:59.866Z,25.20
2018-07-03T19:03:31.612Z,25.10
2018-07-03T19:06:03.332Z,25.10
2018-07-03T19:08:32.987Z,25.10
2018-07-03T19:11:03.508Z,25.00
2018-07-03T19:13:33.172Z,24.90
2018-07-03T19:16:04.187Z,24.90
2018-07-03T19:18:33.751Z,24.90
2018-07-03T19:21:05.522Z,24.80
2018-07-03T19:23:35.135Z,24.80
2018-07-03T19:26:05.828Z,24.70
2018-07-03T19:28:35.566Z,24.60
2018-07-03T19:31:05.391Z,24.70
2018-07-03T19:33:35.112Z,24.60
2018-07-03T19:36:06.671Z,24.50
2018-07-03T19:38:36.241Z,24.50
2018-07-03T19:41:06.071Z,24.40
2018-07-03T19:43:36.945Z,24.40
2018-07-03T19:46:06.890Z,24.30
2018-07-03T19:48:36.941Z,24.30
2018-07-03T19:51:06.885Z,24.30
2018-07-03T19:53:36.581Z,24.30
2018-07-03T19:56:06.462Z,24.20
2018-07-03T19:58:36.244Z,24.10
2018-07-03T20:01:06.136Z,24.10
2018-07-03T20:03:35.811Z,24.00
2018-07-03T20:06:05.730Z,23.90
2018-07-03T20:08:35.433Z,23.90
2018-07-03T20:11:05.187Z,23.90
2018-07-03T20:13:34.757Z,23.90
2018-07-03T20:16:06.204Z,23.80
2018-07-03T20:18:35.924Z,23.80
2018-07-03T20:21:15.381Z,23.80
2018-07-03T20:23:45.115Z,23.70
2018-07-03T20:26:14.887Z,23.70
2018-07-03T20:28:46.979Z,23.70
2018-07-03T20:31:21.117Z,23.70
2018-07-03T20:33:50.674Z,23.70
2018-07-03T20:36:20.319Z,23.60
2018-07-03T20:38:55.715Z,23.60
2018-07-03T20:41:25.654Z,23.60
2018-07-03T20:43:56.308Z,23.50
2018-07-03T20:46:26.377Z,23.50
2018-07-03T20:48:56.024Z,23.40
2018-07-03T20:51:25.965Z,23.50
2018-07-03T20:53:55.873Z,23.50
2018-07-03T20:56:25.728Z,23.50
2018-07-03T20:58:55.501Z,23.40
2018-07-03T21:01:25.217Z,23.40
2018-07-03T21:03:55.220Z,23.40
2018-07-03T21:06:24.880Z,23.30
2018-07-03T21:08:54.296Z,23.30
2018-07-03T21:11:24.093Z,23.20
2018-07-03T21:13:53.945Z,23.20
2018-07-03T21:16:23.670Z,23.20
2018-07-03T21:18:53.189Z,23.10
2018-07-03T21:21:23.068Z,23.10
2018-07-03T21:23:52.810Z,23.10
2018-07-03T21:26:22.558Z,23.00
2018-07-03T21:28:54.067Z,23.00
2018-07-03T21:31:24.634Z,23.00
2018-07-03T21:33:54.245Z,23.00
2018-07-03T21:36:24.088Z,23.00
2018-07-03T21:38:53.746Z,22.90
2018-07-03T21:41:23.560Z,22.80
2018-07-03T21:43:53.190Z,22.80
2018-07-03T21:46:22.954Z,22.70
2018-07-03T21:48:52.565Z,22.70
2018-07-03T21:51:22.309Z,22.60
2018-07-03T21:53:52.334Z,22.60
2018-07-03T21:56:22.005Z,22.50
2018-07-03T21:58:51.814Z,22.50
2018-07-03T22:01:21.454Z,22.30
2018-07-03T22:03:51.041Z,22.40
2018-07-03T22:06:20.615Z,22.30
2018-07-03T22:08:50.276Z,22.30
2018-07-03T22:11:19.902Z,22.20
2018-07-03T22:13:49.443Z,22.20
2018-07-03T22:16:20.069Z,22.20
2018-07-03T22:18:49.804Z,22.10
2018-07-03T22:21:20.372Z,22.10
2018-07-03T22:23:50.088Z,22.10
2018-07-03T22:26:19.650Z,22.00
2018-07-03T22:28:49.193Z,22.00
2018-07-03T22:31:18.849Z,22.00
2018-07-03T22:33:49.680Z,22.00
2018-07-03T22:36:19.416Z,21.90
2018-07-03T22:38:48.872Z,22.10
2018-07-03T22:41:18.422Z,22.00
2018-07-03T22:43:48.015Z,22.00
2018-07-03T22:46:17.583Z,22.00
2018-07-03T22:48:47.111Z,22.00
2018-07-03T22:51:16.736Z,22.00
2018-07-03T22:53:46.242Z,22.00
2018-07-03T22:56:15.853Z,22.00
2018-07-03T22:58:45.415Z,22.00
2018-07-03T23:01:15.050Z,22.00
2018-07-03T23:03:44.838Z,22.00
2018-07-03T23:06:14.434Z,22.00
2018-07-03T23:08:43.944Z,22.00
2018-07-03T23:11:13.640Z,22.00
2018-07-03T23:13:43.160Z,22.00
2018-07-03T23:16:13.017Z,22.00
2018-07-03T23:18:42.965Z,22.00
2018-07-03T23:21:12.495Z,21.90
2018-07-03T23:23:42.137Z,21.90
2018-07-03T23:26:11.637Z,21.90
2018-07-03T23:28:41.193Z,21.90
2018-07-03T23:31:10.760Z,21.80
2018-07-03T23:33:40.402Z,21.70
2018-07-03T23:36:10.196Z,21.90
2018-07-03T23:38:39.761Z,21.90
2018-07-03T23:41:09.297Z,21.90
2018-07-03T23:43:38.811Z,21.80
2018-07-03T23:46:07.076Z,21.80
2018-07-03T23:48:47.733Z,21.80
2018-07-03T23:51:34.477Z,21.80
2018-07-03T23:54:20.853Z,21.80
2018-07-03T23:57:07.388Z,21.70
2018-07-03T23:59:53.964Z,21.70
